Towner, Colorado
Current Conditions -  °F | °C
As of 5:53 PM on Friday 28 Nov 2014 (Local Time) from KLAA Reporting Station
Clear Clear  
Wind Chill: 40°   Ceiling: Unl
Heat Index: 45°   Visibility: 10mi
Dew Point: 17°   Wind: 9mph
Humidity: 33%   Direction: 200°SSW
Pressure: 29.77"   Gusts: NA
Location:  38.4443°N, 102.221°W
Report Text: KLAA 290053Z AUTO 20008KT 10SM CLR 07/M08 A2977 RMK AO2 SLP085 T00721083
Loading
Personal Weather Stations






























Interactive Weather Map New forecast layout! Learn more

10-Day Weather Forecast

Advertisements
Track Severe Weather on mobile